Time,TemperatureF,DewpointF,PressureIn,WindDirection,WindDirectionDegrees,WindSpeedMPH,WindSpeedGustMPH,Humidity,HourlyPrecipIn,Conditions,Clouds,dailyrainin,SolarRadiationWatts/m^2,SoftwareType,DateUTC
2013-07-13 00:01:00,65.3,60.0,30.16,SSW,193,0.0,0.0,83,0.00,,,0.00,0,Wunderground v.1.15,2013-07-13 04:01:00,
2013-07-13 00:02:00,65.3,60.0,30.16,SSW,193,0.0,0.0,83,0.00,,,0.00,0,Wunderground v.1.15,2013-07-13 04:02:00,
2013-07-13 00:03:00,65.2,59.9,30.16,SSW,193,0.0,0.0,83,0.00,,,0.00,0,Wunderground v.1.15,2013-07-13 04:03:00,
2013-07-13 00:04:00,65.2,59.9,30.16,SSW,193,0.0,0.0,83,0.00,,,0.00,0,Wunderground v.1.15,2013-07-13 04:04:00,
2013-07-13 00:06:00,65.2,60.2,30.16,SSW,193,0.0,0.0,84,0.00,,,0.00,0,Wunderground v.1.15,2013-07-13 04:06:00,
2013-07-13 00:11:00,65.0,60.0,30.16,SSW,193,0.0,0.0,84,0.00,,,0.00,0,Wunderground v.1.15,2013-07-13 04:11:00,
2013-07-13 00:16:00,64.7,59.8,30.17,SSW,193,0.0,0.0,84,0.00,,,0.00,0,Wunderground v.1.15,2013-07-13 04:16:00,
2013-07-13 00:22:00,64.7,60.1,30.17,SSW,193,0.0,0.0,85,0.00,,,0.00,0,Wunderground v.1.15,2013-07-13 04:22:00,
2013-07-13 00:24:00,64.5,59.9,30.17,SSW,193,0.0,0.0,85,0.00,,,0.00,0,Wunderground v.1.15,2013-07-13 04:24:00,
2013-07-13 00:29:00,64.3,59.7,30.17,SSW,193,0.0,0.0,85,0.00,,,0.00,0,Wunderground v.1.15,2013-07-13 04:29:00,
2013-07-13 00:36:00,64.3,60.0,30.17,SSW,193,0.0,0.0,86,0.00,,,0.00,0,Wunderground v.1.15,2013-07-13 04:36:00,
2013-07-13 00:41:00,64.2,59.9,30.17,SSW,193,0.0,0.0,86,0.00,,,0.00,0,Wunderground v.1.15,2013-07-13 04:41:00,
2013-07-13 00:46:00,64.0,59.7,30.17,SSW,193,0.0,0.0,86,0.00,,,0.00,0,Wunderground v.1.15,2013-07-13 04:46:00,
2013-07-13 00:52:00,64.0,59.7,30.17,SSW,193,0.0,0.0,86,0.00,,,0.00,0,Wunderground v.1.15,2013-07-13 04:52:00,
2013-07-13 00:58:00,63.9,59.6,30.17,SSW,193,0.0,0.0,86,0.00,,,0.00,0,Wunderground v.1.15,2013-07-13 04:58:00,
2013-07-13 01:03:00,64.0,59.7,30.17,SSW,193,0.0,0.0,86,0.00,,,0.00,0,Wunderground v.1.15,2013-07-13 05:03:00,
2013-07-13 01:09:00,64.0,59.7,30.17,SSW,193,0.0,0.0,86,0.00,,,0.00,0,Wunderground v.1.15,2013-07-13 05:09:00,
2013-07-13 01:15:00,64.0,59.7,30.18,South,191,0.0,0.0,86,0.00,,,0.00,0,Wunderground v.1.15,2013-07-13 05:15:00,
2013-07-13 01:21:00,64.0,59.7,30.18,South,191,0.0,0.0,86,0.00,,,0.00,0,Wunderground v.1.15,2013-07-13 05:21:00,
2013-07-13 01:26:00,64.0,59.4,30.18,South,191,0.0,0.0,85,0.00,,,0.00,0,Wunderground v.1.15,2013-07-13 05:26:00,
2013-07-13 01:32:00,64.0,59.4,30.17,South,191,0.0,0.0,85,0.00,,,0.00,0,Wunderground v.1.15,2013-07-13 05:32:00,
2013-07-13 01:37:00,63.9,59.3,30.17,SSE,155,0.0,0.0,85,0.00,,,0.00,0,Wunderground v.1.15,2013-07-13 05:37:00,
2013-07-13 01:43:00,63.9,59.3,30.17,SSE,156,0.0,0.0,85,0.00,,,0.00,0,Wunderground v.1.15,2013-07-13 05:43:00,
2013-07-13 01:49:00,63.9,59.3,30.17,SSE,156,0.0,0.0,85,0.00,,,0.00,0,Wunderground v.1.15,2013-07-13 05:49:00,
2013-07-13 01:54:00,63.7,59.1,30.17,SSE,155,0.0,0.0,85,0.00,,,0.00,0,Wunderground v.1.15,2013-07-13 05:54:00,
2013-07-13 02:01:00,63.7,58.8,30.18,SSE,156,0.0,0.0,84,0.00,,,0.00,0,Wunderground v.1.15,2013-07-13 06:01:00,
2013-07-13 02:06:00,63.4,58.8,30.18,SSE,156,0.0,0.0,85,0.00,,,0.00,0,Wunderground v.1.15,2013-07-13 06:06:00,
2013-07-13 02:11:00,63.1,58.8,30.18,SSE,156,0.0,0.0,86,0.00,,,0.00,0,Wunderground v.1.15,2013-07-13 06:11:00,
2013-07-13 02:16:00,62.9,59.0,30.18,SSE,156,0.0,0.0,87,0.00,,,0.00,0,Wunderground v.1.15,2013-07-13 06:16:00,
2013-07-13 02:21:00,62.7,58.8,30.18,SSE,156,0.0,0.0,87,0.00,,,0.00,0,Wunderground v.1.15,2013-07-13 06:21:00,
2013-07-13 02:27:00,62.7,58.8,30.18,SSE,155,0.0,0.0,87,0.00,,,0.00,0,Wunderground v.1.15,2013-07-13 06:27:00,
2013-07-13 02:33:00,62.7,59.1,30.18,SSE,156,0.0,0.0,88,0.00,,,0.00,0,Wunderground v.1.15,2013-07-13 06:33:00,
2013-07-13 02:38:00,62.4,58.8,30.18,SSE,156,0.0,0.0,88,0.00,,,0.00,0,Wunderground v.1.15,2013-07-13 06:38:00,
2013-07-13 02:44:00,62.4,58.5,30.18,SSE,156,0.0,0.0,87,0.00,,,0.00,0,Wunderground v.1.15,2013-07-13 06:44:00,
2013-07-13 02:49:00,62.3,58.4,30.19,SSE,155,0.0,0.0,87,0.00,,,0.00,0,Wunderground v.1.15,2013-07-13 06:49:00,
2013-07-13 02:56:00,62.3,58.4,30.19,SSE,156,0.0,0.0,87,0.00,,,0.00,0,Wunderground v.1.15,2013-07-13 06:56:00,
2013-07-13 03:01:00,62.3,58.1,30.19,SSE,156,0.0,0.0,86,0.00,,,0.00,0,Wunderground v.1.15,2013-07-13 07:01:00,
2013-07-13 03:07:00,62.3,58.1,30.19,SSE,156,0.0,0.0,86,0.00,,,0.00,0,Wunderground v.1.15,2013-07-13 07:07:00,
2013-07-13 03:12:00,62.3,58.1,30.19,SSE,156,0.0,0.0,86,0.00,,,0.00,0,Wunderground v.1.15,2013-07-13 07:12:00,
2013-07-13 03:17:00,62.1,57.9,30.19,SSE,155,0.0,0.0,86,0.00,,,0.00,0,Wunderground v.1.15,2013-07-13 07:17:00,
2013-07-13 03:23:00,62.1,57.9,30.19,SSE,156,0.0,0.0,86,0.00,,,0.00,0,Wunderground v.1.15,2013-07-13 07:23:00,
2013-07-13 03:28:00,62.1,57.9,30.19,SSE,156,0.0,0.0,86,0.00,,,0.00,0,Wunderground v.1.15,2013-07-13 07:28:00,
2013-07-13 03:34:00,62.1,57.9,30.19,SSE,155,0.0,0.0,86,0.00,,,0.00,0,Wunderground v.1.15,2013-07-13 07:34:00,
2013-07-13 03:40:00,62.1,57.9,30.19,SSE,156,0.0,0.0,86,0.00,,,0.00,0,Wunderground v.1.15,2013-07-13 07:40:00,
2013-07-13 03:46:00,62.1,57.9,30.19,SSE,155,0.0,0.0,86,0.00,,,0.00,0,Wunderground v.1.15,2013-07-13 07:46:00,
2013-07-13 03:51:00,62.3,58.1,30.19,SSE,156,0.0,0.0,86,0.00,,,0.00,0,Wunderground v.1.15,2013-07-13 07:51:00,
2013-07-13 03:57:00,62.1,57.9,30.19,SSE,156,0.0,0.0,86,0.00,,,0.00,0,Wunderground v.1.15,2013-07-13 07:57:00,
2013-07-13 04:02:00,62.0,57.8,30.18,SSE,155,0.0,0.0,86,0.00,,,0.00,0,Wunderground v.1.15,2013-07-13 08:02:00,
2013-07-13 04:08:00,61.8,57.6,30.18,ESE,122,0.0,0.0,86,0.00,,,0.00,0,Wunderground v.1.15,2013-07-13 08:08:00,
2013-07-13 04:13:00,61.8,57.9,30.18,ESE,122,0.0,0.0,87,0.00,,,0.00,0,Wunderground v.1.15,2013-07-13 08:13:00,
2013-07-13 04:18:00,61.6,57.7,30.18,ESE,122,0.0,0.0,87,0.00,,,0.00,0,Wunderground v.1.15,2013-07-13 08:18:00,
2013-07-13 04:24:00,61.5,57.6,30.18,ESE,122,0.0,0.0,87,0.00,,,0.00,0,Wunderground v.1.15,2013-07-13 08:24:00,
2013-07-13 04:29:00,61.3,57.7,30.18,ESE,120,0.0,0.0,88,0.00,,,0.00,0,Wunderground v.1.15,2013-07-13 08:29:00,
2013-07-13 04:36:00,61.3,57.7,30.18,ESE,120,0.0,0.0,88,0.00,,,0.00,0,Wunderground v.1.15,2013-07-13 08:36:00,
2013-07-13 04:41:00,61.2,57.6,30.18,ESE,120,0.0,0.0,88,0.00,,,0.00,0,Wunderground v.1.15,2013-07-13 08:41:00,
2013-07-13 04:47:00,61.0,57.7,30.18,ESE,120,0.0,0.0,89,0.00,,,0.00,0,Wunderground v.1.15,2013-07-13 08:47:00,
2013-07-13 04:52:00,61.0,57.7,30.18,ESE,120,0.0,0.0,89,0.00,,,0.00,0,Wunderground v.1.15,2013-07-13 08:52:00,
2013-07-13 04:58:00,60.9,57.6,30.18,ESE,120,0.0,0.0,89,0.00,,,0.00,0,Wunderground v.1.15,2013-07-13 08:58:00,
2013-07-13 05:03:00,60.7,57.4,30.18,ESE,120,0.0,0.0,89,0.00,,,0.00,0,Wunderground v.1.15,2013-07-13 09:03:00,
2013-07-13 05:09:00,60.5,57.2,30.18,ESE,120,0.0,0.0,89,0.00,,,0.00,0,Wunderground v.1.15,2013-07-13 09:09:00,
2013-07-13 05:15:00,60.4,57.1,30.18,ESE,120,0.0,0.0,89,0.00,,,0.00,0,Wunderground v.1.15,2013-07-13 09:15:00,
2013-07-13 05:21:00,60.4,57.5,30.18,ESE,120,0.0,0.0,90,0.00,,,0.00,0,Wunderground v.1.15,2013-07-13 09:21:00,
2013-07-13 05:26:00,60.4,57.5,30.18,ESE,120,0.0,0.0,90,0.00,,,0.00,5,Wunderground v.1.15,2013-07-13 09:26:00,
2013-07-13 05:32:00,60.2,57.3,30.19,ESE,120,0.0,0.0,90,0.00,,,0.00,7,Wunderground v.1.15,2013-07-13 09:32:00,
2013-07-13 05:38:00,60.2,57.3,30.19,ESE,120,0.0,0.0,90,0.00,,,0.00,11,Wunderground v.1.15,2013-07-13 09:38:00,
2013-07-13 05:43:00,60.1,57.2,30.19,ESE,120,0.0,0.0,90,0.00,,,0.00,14,Wunderground v.1.15,2013-07-13 09:43:00,
2013-07-13 05:49:00,60.1,57.2,30.19,ESE,120,0.0,0.0,90,0.00,,,0.00,16,Wunderground v.1.15,2013-07-13 09:49:00,
2013-07-13 05:55:00,60.2,57.6,30.19,ESE,120,0.0,0.0,91,0.00,,,0.00,19,Wunderground v.1.15,2013-07-13 09:55:00,
2013-07-13 06:01:00,60.2,57.6,30.20,ESE,120,0.0,0.0,91,0.00,,,0.00,19,Wunderground v.1.15,2013-07-13 10:01:00,
2013-07-13 06:06:00,60.2,57.6,30.20,ESE,120,0.0,0.0,91,0.00,,,0.00,19,Wunderground v.1.15,2013-07-13 10:06:00,
2013-07-13 06:11:00,60.4,57.8,30.20,ESE,120,0.0,0.0,91,0.00,,,0.00,21,Wunderground v.1.15,2013-07-13 10:11:00,
2013-07-13 06:16:00,60.4,57.8,30.20,ESE,120,0.0,0.0,91,0.00,,,0.00,23,Wunderground v.1.15,2013-07-13 10:16:00,
2013-07-13 06:22:00,60.4,57.8,30.20,ESE,120,0.0,0.0,91,0.00,,,0.00,32,Wunderground v.1.15,2013-07-13 10:22:00,
2013-07-13 06:28:00,60.5,57.9,30.20,ESE,120,0.0,0.0,91,0.00,,,0.00,37,Wunderground v.1.15,2013-07-13 10:28:00,
2013-07-13 06:33:00,60.7,58.1,30.20,ESE,120,0.0,0.0,91,0.00,,,0.00,40,Wunderground v.1.15,2013-07-13 10:33:00,
2013-07-13 06:39:00,60.9,58.3,30.20,ESE,120,0.0,0.0,91,0.00,,,0.00,47,Wunderground v.1.15,2013-07-13 10:39:00,
2013-07-13 06:44:00,60.9,58.3,30.20,ESE,120,0.0,0.0,91,0.00,,,0.00,54,Wunderground v.1.15,2013-07-13 10:44:00,
2013-07-13 06:50:00,61.2,58.6,30.21,ESE,120,0.0,0.0,91,0.00,,,0.00,63,Wunderground v.1.15,2013-07-13 10:50:00,
2013-07-13 06:56:00,61.2,58.9,30.21,ESE,120,0.0,0.0,92,0.00,,,0.00,67,Wunderground v.1.15,2013-07-13 10:56:00,
2013-07-13 07:01:00,61.3,59.0,30.21,ESE,120,0.0,0.0,92,0.00,,,0.00,76,Wunderground v.1.15,2013-07-13 11:01:00,
2013-07-13 07:07:00,61.6,59.3,30.21,ESE,120,0.0,0.0,92,0.00,,,0.00,83,Wunderground v.1.15,2013-07-13 11:07:00,
2013-07-13 07:13:00,62.0,59.6,30.21,ESE,120,0.0,0.0,92,0.00,,,0.00,90,Wunderground v.1.15,2013-07-13 11:13:00,
2013-07-13 07:18:00,62.1,59.7,30.21,ESE,120,0.0,0.0,92,0.00,,,0.00,98,Wunderground v.1.15,2013-07-13 11:18:00,
2013-07-13 07:24:00,62.4,60.0,30.21,ESE,120,0.0,0.0,92,0.00,,,0.00,98,Wunderground v.1.15,2013-07-13 11:24:00,
2013-07-13 07:30:00,63.1,60.7,30.22,ESE,120,0.0,0.0,92,0.00,,,0.00,105,Wunderground v.1.15,2013-07-13 11:30:00,
2013-07-13 07:36:00,63.2,60.8,30.22,ESE,120,0.0,0.0,92,0.00,,,0.00,111,Wunderground v.1.15,2013-07-13 11:36:00,
2013-07-13 07:41:00,63.5,60.8,30.22,ESE,120,0.0,0.0,91,0.00,,,0.00,114,Wunderground v.1.15,2013-07-13 11:41:00,
2013-07-13 07:47:00,63.9,61.2,30.22,ESE,120,0.0,0.0,91,0.00,,,0.00,116,Wunderground v.1.15,2013-07-13 11:47:00,
2013-07-13 07:52:00,63.9,60.9,30.22,ESE,120,0.0,0.0,90,0.00,,,0.00,120,Wunderground v.1.15,2013-07-13 11:52:00,
2013-07-13 07:58:00,64.3,61.3,30.22,ESE,120,0.0,0.0,90,0.00,,,0.00,120,Wunderground v.1.15,2013-07-13 11:58:00,
2013-07-13 08:04:00,64.7,61.7,30.22,ESE,120,0.0,0.0,90,0.00,,,0.00,120,Wunderground v.1.15,2013-07-13 12:04:00,
2013-07-13 08:09:00,64.8,61.5,30.22,ESE,120,0.0,0.0,89,0.00,,,0.00,120,Wunderground v.1.15,2013-07-13 12:09:00,
2013-07-13 08:16:00,65.3,62.0,30.22,ESE,120,0.0,0.0,89,0.00,,,0.00,114,Wunderground v.1.15,2013-07-13 12:16:00,
2013-07-13 08:21:00,65.5,61.9,30.22,ESE,120,0.0,0.0,88,0.00,,,0.00,116,Wunderground v.1.15,2013-07-13 12:21:00,
2013-07-13 08:27:00,65.8,61.8,30.22,ESE,120,0.0,0.0,87,0.00,,,0.00,120,Wunderground v.1.15,2013-07-13 12:27:00,
2013-07-13 08:32:00,66.0,61.7,30.23,ESE,120,0.0,0.0,86,0.00,,,0.00,125,Wunderground v.1.15,2013-07-13 12:32:00,
2013-07-13 08:38:00,66.4,61.8,30.23,ESE,120,0.0,0.0,85,0.00,,,0.00,225,Wunderground v.1.15,2013-07-13 12:38:00,
2013-07-13 08:44:00,67.1,61.8,30.23,ESE,120,0.0,0.0,83,0.00,,,0.00,513,Wunderground v.1.15,2013-07-13 12:44:00,
2013-07-13 08:49:00,68.1,62.7,30.23,ESE,120,0.0,0.0,83,0.00,,,0.00,478,Wunderground v.1.15,2013-07-13 12:49:00,
2013-07-13 08:55:00,69.6,63.2,30.23,ESE,120,0.0,0.0,80,0.00,,,0.00,548,Wunderground v.1.15,2013-07-13 12:55:00,
2013-07-13 09:01:00,70.8,63.2,30.23,ESE,120,0.0,0.0,77,0.00,,,0.00,308,Wunderground v.1.15,2013-07-13 13:01:00,
2013-07-13 09:07:00,71.8,64.2,30.23,ESE,120,0.0,0.0,77,0.00,,,0.00,352,Wunderground v.1.15,2013-07-13 13:07:00,
2013-07-13 09:13:00,72.5,65.2,30.23,ESE,120,0.0,0.0,78,0.00,,,0.00,417,Wunderground v.1.15,2013-07-13 13:13:00,
2013-07-13 09:18:00,72.8,64.8,30.24,ESE,120,0.0,0.0,76,0.00,,,0.00,446,Wunderground v.1.15,2013-07-13 13:18:00,
2013-07-13 09:24:00,73.2,64.0,30.24,ESE,120,0.0,0.0,73,0.00,,,0.00,325,Wunderground v.1.15,2013-07-13 13:24:00,
2013-07-13 09:30:00,73.2,62.8,30.23,ESE,120,0.0,0.0,70,0.00,,,0.00,473,Wunderground v.1.15,2013-07-13 13:30:00,
2013-07-13 09:36:00,73.5,63.9,30.23,ESE,120,0.0,0.0,72,0.00,,,0.00,408,Wunderground v.1.15,2013-07-13 13:36:00,
2013-07-13 09:41:00,73.5,64.3,30.23,ESE,120,0.0,0.0,73,0.00,,,0.00,339,Wunderground v.1.15,2013-07-13 13:41:00,
2013-07-13 09:47:00,73.9,65.1,30.23,ESE,120,0.0,0.0,74,0.00,,,0.00,299,Wunderground v.1.15,2013-07-13 13:47:00,
2013-07-13 09:53:00,74.2,64.6,30.23,ESE,120,0.0,0.0,72,0.00,,,0.00,339,Wunderground v.1.15,2013-07-13 13:53:00,
2013-07-13 09:58:00,74.7,64.7,30.23,ESE,120,0.0,0.0,71,0.00,,,0.00,475,Wunderground v.1.15,2013-07-13 13:58:00,
2013-07-13 10:04:00,75.3,65.6,30.23,ESE,120,0.0,0.0,72,0.00,,,0.00,357,Wunderground v.1.15,2013-07-13 14:04:00,
2013-07-13 10:10:00,75.8,65.3,30.23,ESE,120,0.0,0.0,70,0.00,,,0.00,299,Wunderground v.1.15,2013-07-13 14:10:00,
2013-07-13 10:15:00,76.0,64.7,30.24,ESE,120,0.0,0.0,68,0.00,,,0.00,281,Wunderground v.1.15,2013-07-13 14:15:00,
2013-07-13 10:20:00,76.1,65.2,30.24,ESE,120,0.0,0.0,69,0.00,,,0.00,318,Wunderground v.1.15,2013-07-13 14:20:00,
2013-07-13 10:26:00,76.1,65.2,30.24,ESE,120,0.0,0.0,69,0.00,,,0.00,352,Wunderground v.1.15,2013-07-13 14:26:00,
2013-07-13 10:31:00,76.5,65.6,30.23,ESE,120,0.0,0.0,69,0.00,,,0.00,462,Wunderground v.1.15,2013-07-13 14:31:00,
2013-07-13 10:37:00,76.5,63.9,30.23,ESE,120,0.0,0.0,65,0.00,,,0.00,403,Wunderground v.1.15,2013-07-13 14:37:00,
2013-07-13 10:42:00,76.7,65.3,30.23,ESE,120,0.0,0.0,68,0.00,,,0.00,461,Wunderground v.1.15,2013-07-13 14:42:00,
2013-07-13 10:48:00,77.0,66.0,30.23,ESE,120,0.0,0.0,69,0.00,,,0.00,485,Wunderground v.1.15,2013-07-13 14:48:00,
2013-07-13 10:54:00,76.3,63.2,30.23,ESE,120,0.0,0.0,64,0.00,,,0.00,446,Wunderground v.1.15,2013-07-13 14:54:00,
2013-07-13 11:00:00,76.5,64.3,30.23,ESE,120,0.0,0.0,66,0.00,,,0.00,427,Wunderground v.1.15,2013-07-13 15:00:00,
2013-07-13 11:06:00,76.1,64.3,30.23,ESE,120,0.0,0.0,67,0.00,,,0.00,429,Wunderground v.1.15,2013-07-13 15:06:00,
2013-07-13 11:11:00,76.5,66.0,30.23,ESE,120,0.0,0.0,70,0.00,,,0.00,534,Wunderground v.1.15,2013-07-13 15:11:00,
2013-07-13 11:17:00,76.1,62.6,30.24,ESE,120,0.0,0.0,63,0.00,,,0.00,466,Wunderground v.1.15,2013-07-13 15:17:00,
2013-07-13 11:22:00,76.5,64.7,30.24,ESE,121,0.0,0.0,67,0.00,,,0.00,482,Wunderground v.1.15,2013-07-13 15:22:00,
2013-07-13 11:28:00,76.7,64.9,30.24,ESE,121,0.0,0.0,67,0.00,,,0.00,580,Wunderground v.1.15,2013-07-13 15:28:00,
2013-07-13 11:34:00,77.4,66.4,30.24,ESE,121,0.0,0.0,69,0.00,,,0.00,793,Wunderground v.1.15,2013-07-13 15:34:00,
2013-07-13 11:39:00,78.1,66.7,30.24,ESE,121,0.0,0.0,68,0.00,,,0.00,962,Wunderground v.1.15,2013-07-13 15:39:00,
2013-07-13 11:46:00,78.8,66.0,30.24,ESE,120,0.0,0.0,65,0.00,,,0.00,613,Wunderground v.1.15,2013-07-13 15:46:00,
2013-07-13 11:51:00,79.2,66.9,30.24,ESE,120,0.0,0.0,66,0.00,,,0.00,680,Wunderground v.1.15,2013-07-13 15:51:00,
2013-07-13 11:56:00,79.9,65.2,30.24,ESE,120,0.0,0.0,61,0.00,,,0.00,969,Wunderground v.1.15,2013-07-13 15:56:00,
2013-07-13 12:02:00,80.5,66.7,30.23,ESE,120,0.0,0.0,63,0.00,,,0.00,912,Wunderground v.1.15,2013-07-13 16:02:00,
2013-07-13 12:08:00,81.4,67.1,30.23,ESE,120,0.0,0.0,62,0.00,,,0.00,735,Wunderground v.1.15,2013-07-13 16:08:00,
2013-07-13 12:13:00,80.9,66.2,30.23,ESE,120,0.0,0.0,61,0.00,,,0.00,594,Wunderground v.1.15,2013-07-13 16:13:00,
2013-07-13 12:18:00,80.5,66.3,30.24,ESE,120,0.0,0.0,62,0.00,,,0.00,594,Wunderground v.1.15,2013-07-13 16:18:00,
2013-07-13 12:23:00,80.9,67.6,30.24,ESE,121,0.0,0.0,64,0.00,,,0.00,578,Wunderground v.1.15,2013-07-13 16:23:00,
2013-07-13 12:29:00,81.4,66.2,30.24,ESE,121,0.0,0.0,60,0.00,,,0.00,527,Wunderground v.1.15,2013-07-13 16:29:00,
2013-07-13 12:36:00,81.6,65.9,30.24,South,191,0.0,2.0,59,0.00,,,0.00,439,Wunderground v.1.15,2013-07-13 16:36:00,
2013-07-13 12:41:00,81.6,66.4,30.24,South,191,0.0,0.0,60,0.00,,,0.00,494,Wunderground v.1.15,2013-07-13 16:41:00,
2013-07-13 12:46:00,81.6,65.9,30.23,South,191,0.0,0.0,59,0.00,,,0.00,548,Wunderground v.1.15,2013-07-13 16:46:00,
2013-07-13 12:52:00,81.4,65.2,30.23,South,191,0.0,0.0,58,0.00,,,0.00,508,Wunderground v.1.15,2013-07-13 16:52:00,
2013-07-13 12:58:00,81.2,66.0,30.23,South,191,0.0,0.0,60,0.00,,,0.00,508,Wunderground v.1.15,2013-07-13 16:58:00,
2013-07-13 13:03:00,80.7,66.0,30.23,South,191,0.0,0.0,61,0.00,,,0.00,403,Wunderground v.1.15,2013-07-13 17:03:00,
2013-07-13 13:09:00,80.3,65.1,30.23,South,191,0.0,0.0,60,0.00,,,0.00,446,Wunderground v.1.15,2013-07-13 17:09:00,
2013-07-13 13:15:00,80.3,65.6,30.23,South,191,0.0,0.0,61,0.00,,,0.00,265,Wunderground v.1.15,2013-07-13 17:15:00,
2013-07-13 13:21:00,80.1,65.4,30.23,South,191,0.0,0.0,61,0.00,,,0.00,211,Wunderground v.1.15,2013-07-13 17:21:00,
2013-07-13 13:26:00,79.8,65.6,30.23,South,191,0.0,0.0,62,0.00,,,0.00,211,Wunderground v.1.15,2013-07-13 17:26:00,
2013-07-13 13:32:00,79.4,65.7,30.24,South,191,0.0,0.0,63,0.00,,,0.00,176,Wunderground v.1.15,2013-07-13 17:32:00,
2013-07-13 13:37:00,78.8,65.1,30.24,South,191,0.0,0.0,63,0.00,,,0.00,144,Wunderground v.1.15,2013-07-13 17:37:00,
2013-07-13 13:43:00,78.5,65.8,30.24,South,191,0.0,0.0,65,0.00,,,0.00,125,Wunderground v.1.15,2013-07-13 17:43:00,
2013-07-13 13:49:00,77.9,65.2,30.23,South,191,0.0,0.0,65,0.00,,,0.00,107,Wunderground v.1.15,2013-07-13 17:49:00,
2013-07-13 13:54:00,77.6,64.9,30.23,South,191,0.0,0.0,65,0.00,,,0.00,135,Wunderground v.1.15,2013-07-13 17:54:00,
2013-07-13 14:00:00,76.7,64.9,30.24,South,191,0.0,0.0,67,0.00,,,0.00,148,Wunderground v.1.15,2013-07-13 18:00:00,
2013-07-13 14:06:00,76.1,65.2,30.24,South,191,0.0,0.0,69,0.00,,,0.00,149,Wunderground v.1.15,2013-07-13 18:06:00,
2013-07-13 14:11:00,75.8,64.1,30.24,South,191,0.0,0.0,67,0.00,,,0.00,214,Wunderground v.1.15,2013-07-13 18:11:00,
2013-07-13 14:17:00,76.0,65.1,30.23,South,191,0.0,0.0,69,0.00,,,0.00,330,Wunderground v.1.15,2013-07-13 18:17:00,
2013-07-13 14:23:00,76.3,66.6,30.23,South,191,0.0,0.0,72,0.00,,,0.00,424,Wunderground v.1.15,2013-07-13 18:23:00,
2013-07-13 14:28:00,76.5,63.9,30.23,South,191,0.0,0.0,65,0.00,,,0.00,621,Wunderground v.1.15,2013-07-13 18:28:00,
2013-07-13 14:34:00,76.8,63.2,30.23,South,191,0.0,0.0,63,0.00,,,0.00,573,Wunderground v.1.15,2013-07-13 18:34:00,
2013-07-13 14:40:00,77.6,64.0,30.23,South,191,0.0,0.0,63,0.00,,,0.00,844,Wunderground v.1.15,2013-07-13 18:40:00,
2013-07-13 14:46:00,79.0,66.2,30.23,South,191,0.0,0.0,65,0.00,,,0.00,793,Wunderground v.1.15,2013-07-13 18:46:00,
2013-07-13 14:51:00,80.5,63.9,30.23,South,190,0.0,0.0,57,0.00,,,0.00,795,Wunderground v.1.15,2013-07-13 18:51:00,
2013-07-13 14:57:00,80.9,64.7,30.23,South,190,0.0,1.0,58,0.00,,,0.00,534,Wunderground v.1.15,2013-07-13 18:57:00,
2013-07-13 15:03:00,81.4,65.7,30.23,South,190,0.0,0.0,59,0.00,,,0.00,466,Wunderground v.1.15,2013-07-13 19:03:00,
2013-07-13 15:09:00,81.6,66.4,30.23,South,190,0.0,0.0,60,0.00,,,0.00,241,Wunderground v.1.15,2013-07-13 19:09:00,
2013-07-13 15:15:00,81.2,66.5,30.23,South,190,0.0,0.0,61,0.00,,,0.00,225,Wunderground v.1.15,2013-07-13 19:15:00,
2013-07-13 15:21:00,80.9,67.1,30.23,South,190,0.0,0.0,63,0.00,,,0.00,350,Wunderground v.1.15,2013-07-13 19:21:00,
2013-07-13 15:26:00,80.9,66.7,30.23,South,190,0.0,0.0,62,0.00,,,0.00,302,Wunderground v.1.15,2013-07-13 19:26:00,
2013-07-13 15:32:00,80.9,67.1,30.23,South,190,0.0,0.0,63,0.00,,,0.00,380,Wunderground v.1.15,2013-07-13 19:32:00,
2013-07-13 15:38:00,80.5,67.2,30.23,South,190,0.0,0.0,64,0.00,,,0.00,503,Wunderground v.1.15,2013-07-13 19:38:00,
2013-07-13 15:43:00,79.8,66.1,30.23,South,190,0.0,0.0,63,0.00,,,0.00,406,Wunderground v.1.15,2013-07-13 19:43:00,
2013-07-13 15:49:00,79.8,66.5,30.23,SSE,160,0.0,0.0,64,0.00,,,0.00,353,Wunderground v.1.15,2013-07-13 19:49:00,
2013-07-13 15:55:00,80.1,66.8,30.23,SSE,160,0.0,0.0,64,0.00,,,0.00,360,Wunderground v.1.15,2013-07-13 19:55:00,
2013-07-13 16:01:00,80.3,67.9,30.22,SSE,160,0.0,0.0,66,0.00,,,0.00,281,Wunderground v.1.15,2013-07-13 20:01:00,
2013-07-13 16:06:00,80.3,66.6,30.22,SSE,160,0.0,0.0,63,0.00,,,0.00,290,Wunderground v.1.15,2013-07-13 20:06:00,
2013-07-13 16:11:00,80.3,67.0,30.22,SSE,160,0.0,0.0,64,0.00,,,0.00,221,Wunderground v.1.15,2013-07-13 20:11:00,
2013-07-13 16:17:00,80.3,67.5,30.22,SSE,160,0.0,0.0,65,0.00,,,0.00,320,Wunderground v.1.15,2013-07-13 20:17:00,
2013-07-13 16:22:00,79.9,67.5,30.22,ESE,103,0.0,0.0,66,0.00,,,0.00,343,Wunderground v.1.15,2013-07-13 20:22:00,
2013-07-13 16:28:00,79.2,68.1,30.22,ESE,103,0.0,0.0,69,0.00,,,0.00,352,Wunderground v.1.15,2013-07-13 20:28:00,
2013-07-13 16:34:00,79.2,68.6,30.21,ESE,103,0.0,0.0,70,0.00,,,0.00,432,Wunderground v.1.15,2013-07-13 20:34:00,
2013-07-13 16:39:00,79.6,68.1,30.21,WSW,252,0.0,0.0,68,0.00,,,0.00,659,Wunderground v.1.15,2013-07-13 20:39:00,
2013-07-13 16:45:00,80.7,66.9,30.21,South,182,0.0,0.0,63,0.00,,,0.00,589,Wunderground v.1.15,2013-07-13 20:45:00,
2013-07-13 16:51:00,81.6,66.8,30.21,WNW,283,0.0,0.0,61,0.00,,,0.00,478,Wunderground v.1.15,2013-07-13 20:51:00,
2013-07-13 16:56:00,82.0,67.2,30.21,West,278,0.0,0.0,61,0.00,,,0.00,487,Wunderground v.1.15,2013-07-13 20:56:00,
2013-07-13 17:02:00,82.0,67.2,30.21,West,277,0.0,0.0,61,0.00,,,0.00,457,Wunderground v.1.15,2013-07-13 21:02:00,
2013-07-13 17:07:00,82.2,67.4,30.21,West,276,0.0,0.0,61,0.00,,,0.00,450,Wunderground v.1.15,2013-07-13 21:07:00,
2013-07-13 17:13:00,82.4,67.1,30.21,West,276,0.0,0.0,60,0.00,,,0.00,452,Wunderground v.1.15,2013-07-13 21:13:00,
2013-07-13 17:18:00,82.2,66.9,30.21,West,276,0.0,0.0,60,0.00,,,0.00,459,Wunderground v.1.15,2013-07-13 21:18:00,
2013-07-13 17:24:00,81.8,66.6,30.21,West,276,0.0,0.0,60,0.00,,,0.00,441,Wunderground v.1.15,2013-07-13 21:24:00,
2013-07-13 17:30:00,81.4,67.1,30.21,West,276,0.0,0.0,62,0.00,,,0.00,181,Wunderground v.1.15,2013-07-13 21:30:00,
2013-07-13 17:36:00,81.1,67.3,30.21,West,276,0.0,0.0,63,0.00,,,0.00,153,Wunderground v.1.15,2013-07-13 21:36:00,
2013-07-13 17:41:00,80.9,67.6,30.21,West,276,0.0,0.0,64,0.00,,,0.00,146,Wunderground v.1.15,2013-07-13 21:41:00,
2013-07-13 17:47:00,80.3,66.6,30.21,West,276,0.0,0.0,63,0.00,,,0.00,107,Wunderground v.1.15,2013-07-13 21:47:00,
2013-07-13 17:52:00,80.1,66.8,30.21,West,276,0.0,0.0,64,0.00,,,0.00,81,Wunderground v.1.15,2013-07-13 21:52:00,
2013-07-13 17:58:00,79.6,66.8,30.21,West,274,0.0,3.0,65,0.00,,,0.00,60,Wunderground v.1.15,2013-07-13 21:58:00,
2013-07-13 18:04:00,79.0,67.1,30.20,SSW,208,0.0,0.0,67,0.00,,,0.00,42,Wunderground v.1.15,2013-07-13 22:04:00,
2013-07-13 18:09:00,78.8,66.5,30.20,SE,127,0.0,1.0,66,0.00,,,0.00,65,Wunderground v.1.15,2013-07-13 22:09:00,
2013-07-13 18:16:00,79.8,67.9,30.20,SE,127,0.0,0.0,67,0.00,,,0.00,79,Wunderground v.1.15,2013-07-13 22:16:00,
2013-07-13 18:21:00,80.7,66.5,30.20,ESE,106,0.0,0.0,62,0.00,,,0.00,51,Wunderground v.1.15,2013-07-13 22:21:00,
2013-07-13 18:26:00,82.0,67.7,30.20,ESE,108,0.0,2.0,62,0.00,,,0.00,40,Wunderground v.1.15,2013-07-13 22:26:00,
2013-07-13 18:32:00,83.2,66.4,30.20,ESE,108,0.0,0.0,57,0.00,,,0.00,37,Wunderground v.1.15,2013-07-13 22:32:00,
2013-07-13 18:38:00,82.4,67.1,30.20,ESE,108,0.0,0.0,60,0.00,,,0.00,35,Wunderground v.1.15,2013-07-13 22:38:00,
2013-07-13 18:43:00,81.4,66.7,30.20,ESE,108,0.0,0.0,61,0.00,,,0.00,33,Wunderground v.1.15,2013-07-13 22:43:00,
2013-07-13 18:49:00,80.3,67.0,30.21,ESE,108,0.0,0.0,64,0.00,,,0.00,32,Wunderground v.1.15,2013-07-13 22:49:00,
2013-07-13 18:55:00,79.2,66.9,30.21,ESE,108,0.0,0.0,66,0.00,,,0.00,32,Wunderground v.1.15,2013-07-13 22:55:00,
2013-07-13 19:01:00,78.3,66.0,30.21,ESE,108,0.0,0.0,66,0.00,,,0.00,32,Wunderground v.1.15,2013-07-13 23:01:00,
2013-07-13 19:06:00,77.9,66.5,30.21,ESE,108,0.0,0.0,68,0.00,,,0.00,37,Wunderground v.1.15,2013-07-13 23:06:00,
2013-07-13 19:11:00,77.4,66.0,30.21,ESE,108,0.0,0.0,68,0.00,,,0.00,28,Wunderground v.1.15,2013-07-13 23:11:00,
2013-07-13 19:16:00,77.0,66.0,30.21,WSW,252,0.0,0.0,69,0.00,,,0.00,25,Wunderground v.1.15,2013-07-13 23:16:00,
2013-07-13 19:22:00,76.7,65.8,30.21,WSW,253,0.0,0.0,69,0.00,,,0.00,23,Wunderground v.1.15,2013-07-13 23:22:00,
2013-07-13 19:27:00,76.5,66.0,30.21,WSW,253,0.0,1.0,70,0.00,,,0.00,21,Wunderground v.1.15,2013-07-13 23:27:00,
2013-07-13 19:33:00,76.1,65.6,30.21,WSW,252,0.0,0.0,70,0.00,,,0.00,19,Wunderground v.1.15,2013-07-13 23:33:00,
2013-07-13 19:39:00,76.1,66.0,30.21,SW,221,0.0,0.0,71,0.00,,,0.00,16,Wunderground v.1.15,2013-07-13 23:39:00,
2013-07-13 19:44:00,76.0,65.9,30.21,SW,221,0.0,0.0,71,0.00,,,0.00,16,Wunderground v.1.15,2013-07-13 23:44:00,
2013-07-13 19:51:00,75.8,66.5,30.22,SW,221,0.0,0.0,73,0.00,,,0.00,14,Wunderground v.1.15,2013-07-13 23:51:00,
2013-07-13 19:56:00,75.4,66.1,30.22,SW,221,0.0,0.0,73,0.00,,,0.00,11,Wunderground v.1.15,2013-07-13 23:56:00,
2013-07-13 20:02:00,75.4,66.1,30.22,SW,221,0.0,0.0,73,0.00,,,0.00,9,Wunderground v.1.15,2013-07-14 00:02:00,
2013-07-13 20:08:00,75.3,66.0,30.22,SW,221,0.0,0.0,73,0.00,,,0.00,7,Wunderground v.1.15,2013-07-14 00:08:00,
2013-07-13 20:14:00,75.1,66.2,30.22,SW,221,0.0,0.0,74,0.00,,,0.00,7,Wunderground v.1.15,2013-07-14 00:14:00,
2013-07-13 20:19:00,74.9,66.4,30.22,SW,221,0.0,0.0,75,0.00,,,0.00,5,Wunderground v.1.15,2013-07-14 00:19:00,
2013-07-13 20:26:00,74.6,66.5,30.22,SW,221,0.0,0.0,76,0.00,,,0.00,5,Wunderground v.1.15,2013-07-14 00:26:00,
2013-07-13 20:31:00,74.4,66.3,30.22,SW,221,0.0,0.0,76,0.00,,,0.00,0,Wunderground v.1.15,2013-07-14 00:31:00,
2013-07-13 20:37:00,74.0,66.3,30.22,SW,221,0.0,0.0,77,0.00,,,0.00,0,Wunderground v.1.15,2013-07-14 00:37:00,
2013-07-13 20:42:00,73.9,66.6,30.22,SW,221,0.0,0.0,78,0.00,,,0.00,0,Wunderground v.1.15,2013-07-14 00:42:00,
2013-07-13 20:48:00,73.7,66.4,30.22,SW,221,0.0,0.0,78,0.00,,,0.00,0,Wunderground v.1.15,2013-07-14 00:48:00,
2013-07-13 20:53:00,73.5,66.6,30.22,SW,221,0.0,0.0,79,0.00,,,0.00,0,Wunderground v.1.15,2013-07-14 00:53:00,
2013-07-13 20:59:00,73.3,66.4,30.22,SW,221,0.0,0.0,79,0.00,,,0.00,0,Wunderground v.1.15,2013-07-14 00:59:00,
2013-07-13 21:06:00,73.2,66.7,30.22,SW,221,0.0,0.0,80,0.00,,,0.00,0,Wunderground v.1.15,2013-07-14 01:06:00,
2013-07-13 21:11:00,73.0,66.5,30.22,SW,221,0.0,0.0,80,0.00,,,0.00,0,Wunderground v.1.15,2013-07-14 01:11:00,
2013-07-13 21:16:00,72.8,66.3,30.22,SW,221,0.0,0.0,80,0.00,,,0.00,0,Wunderground v.1.15,2013-07-14 01:16:00,
2013-07-13 21:22:00,72.8,66.3,30.22,SW,221,0.0,0.0,80,0.00,,,0.00,0,Wunderground v.1.15,2013-07-14 01:22:00,
2013-07-13 21:27:00,72.7,66.2,30.22,SW,221,0.0,0.0,80,0.00,,,0.00,0,Wunderground v.1.15,2013-07-14 01:27:00,
2013-07-13 21:33:00,72.5,66.0,30.23,SW,221,0.0,0.0,80,0.00,,,0.00,0,Wunderground v.1.15,2013-07-14 01:33:00,
2013-07-13 21:39:00,72.5,66.3,30.23,SW,221,0.0,0.0,81,0.00,,,0.00,0,Wunderground v.1.15,2013-07-14 01:39:00,
2013-07-13 21:44:00,72.5,66.3,30.23,SW,221,0.0,0.0,81,0.00,,,0.00,0,Wunderground v.1.15,2013-07-14 01:44:00,
2013-07-13 21:51:00,72.3,66.1,30.23,SW,221,0.0,0.0,81,0.00,,,0.00,0,Wunderground v.1.15,2013-07-14 01:51:00,
2013-07-13 21:56:00,72.1,66.3,30.23,SW,221,0.0,0.0,82,0.00,,,0.00,0,Wunderground v.1.15,2013-07-14 01:56:00,
2013-07-13 22:02:00,71.8,66.0,30.23,SW,221,0.0,0.0,82,0.00,,,0.00,0,Wunderground v.1.15,2013-07-14 02:02:00,
2013-07-13 22:07:00,71.8,66.4,30.23,SW,221,0.0,0.0,83,0.00,,,0.00,0,Wunderground v.1.15,2013-07-14 02:07:00,
2013-07-13 22:13:00,71.6,66.2,30.23,SW,221,0.0,0.0,83,0.00,,,0.00,0,Wunderground v.1.15,2013-07-14 02:13:00,
2013-07-13 22:19:00,71.5,66.1,30.23,SW,221,0.0,0.0,83,0.00,,,0.00,0,Wunderground v.1.15,2013-07-14 02:19:00,
2013-07-13 22:24:00,71.3,65.9,30.23,SW,221,0.0,0.0,83,0.00,,,0.00,0,Wunderground v.1.15,2013-07-14 02:24:00,
2013-07-13 22:31:00,71.3,65.9,30.23,SW,221,0.0,0.0,83,0.00,,,0.00,0,Wunderground v.1.15,2013-07-14 02:31:00,
2013-07-13 22:36:00,71.1,66.0,30.23,SW,221,0.0,0.0,84,0.00,,,0.00,0,Wunderground v.1.15,2013-07-14 02:36:00,
2013-07-13 22:42:00,71.1,66.0,30.23,SW,221,0.0,0.0,84,0.00,,,0.00,0,Wunderground v.1.15,2013-07-14 02:42:00,
2013-07-13 22:47:00,71.1,65.7,30.23,SW,221,0.0,0.0,83,0.00,,,0.00,0,Wunderground v.1.15,2013-07-14 02:47:00,
2013-07-13 22:53:00,70.9,65.5,30.23,SW,221,0.0,0.0,83,0.00,,,0.00,0,Wunderground v.1.15,2013-07-14 02:53:00,
2013-07-13 22:58:00,70.9,65.8,30.23,SW,221,0.0,0.0,84,0.00,,,0.00,0,Wunderground v.1.15,2013-07-14 02:58:00,
2013-07-13 23:04:00,70.8,65.7,30.24,SW,221,0.0,0.0,84,0.00,,,0.00,0,Wunderground v.1.15,2013-07-14 03:04:00,
2013-07-13 23:11:00,70.8,65.7,30.24,SW,221,0.0,0.0,84,0.00,,,0.00,0,Wunderground v.1.15,2013-07-14 03:11:00,
2013-07-13 23:16:00,70.6,65.5,30.24,SW,221,0.0,0.0,84,0.00,,,0.00,0,Wunderground v.1.15,2013-07-14 03:16:00,
2013-07-13 23:22:00,70.4,65.7,30.24,SW,221,0.0,0.0,85,0.00,,,0.00,0,Wunderground v.1.15,2013-07-14 03:22:00,
2013-07-13 23:28:00,70.3,65.6,30.24,SW,221,0.0,0.0,85,0.00,,,0.00,0,Wunderground v.1.15,2013-07-14 03:28:00,
2013-07-13 23:33:00,70.1,65.7,30.24,SW,221,0.0,0.0,86,0.00,,,0.00,0,Wunderground v.1.15,2013-07-14 03:33:00,
2013-07-13 23:39:00,69.9,65.5,30.24,SW,221,0.0,0.0,86,0.00,,,0.00,0,Wunderground v.1.15,2013-07-14 03:39:00,
2013-07-13 23:44:00,69.9,65.5,30.24,SW,221,0.0,0.0,86,0.00,,,0.00,0,Wunderground v.1.15,2013-07-14 03:44:00,
2013-07-13 23:51:00,69.8,65.4,30.24,SW,221,0.0,0.0,86,0.00,,,0.00,0,Wunderground v.1.15,2013-07-14 03:51:00,
2013-07-13 23:56:00,69.6,65.6,30.24,SW,221,0.0,0.0,87,0.00,,,0.00,0,Wunderground v.1.15,2013-07-14 03:56:00,